Time;durP1;ratioP1;P1;durP2;ratioP2;P2;SDS_P1;SDS_P2;PMS_P1;PMS_P2;Temp;Humidity;BMP_temperature;BMP_pressure;BME280_temperature;BME280_humidity;BME280_pressure;Samples;Min_cycle;Max_cycle;Signal;HPM_P1;HPM_P2
2021/12/29 00:01:36;;;;;;;;;;;;;;;14.91;68.73;100163.28;4968920;28;19961;-87
2021/12/29 00:04:01;;;;;;;;;;;;;;;14.32;70.74;100178.53;4970890;28;19918;-91
2021/12/29 00:06:26;;;;;;;;;;;;;;;15.10;67.65;100176.31;4969302;28;19925;-90
2021/12/29 00:08:51;;;;;;;;;;;;;;;15.05;67.80;100184.84;4970157;28;19989;-92
2021/12/29 00:11:17;;;;;;;;;;;;;;;14.65;69.26;100179.75;4968831;28;20388;-89
2021/12/29 00:13:42;;;;;;;;;;;;;;;14.78;70.26;100191.44;4968248;28;19926;-91
2021/12/29 00:16:07;;;;;;;;;;;;;;;14.92;67.87;100186.81;4971261;28;19934;-88
2021/12/29 00:18:34;;;;;;;;;;;;;;;14.82;68.22;100195.66;4976734;28;19918;-87
2021/12/29 00:21:00;;;;;;;;;;;;;;;14.95;67.48;100208.38;4977984;28;19918;-88
2021/12/29 00:23:26;;;;;;;;;;;;;;;14.72;69.54;100213.69;4973525;28;19918;-87
2021/12/29 00:25:51;;;;;;;;;;;;;;;15.29;66.76;100220.22;4971437;28;19922;-89
2021/12/29 00:28:17;;;;;;;;;;;;;;;14.77;69.02;100214.19;4987825;28;19922;-91
2021/12/29 00:30:42;;;;;;;;;;;;;;;16.33;62.58;100221.13;4969449;28;19918;-90
2021/12/29 00:33:08;;;;;;;;;;;;;;;15.03;66.87;100222.25;4969008;28;19925;-91
2021/12/29 00:35:35;;;;;;;;;;;;;;;15.02;66.86;100225.94;4968882;28;19925;-86
2021/12/29 00:38:03;;;;;;;;;;;;;;;14.93;68.13;100233.00;4968562;28;19918;-90
2021/12/29 00:40:29;;;;;;;;;;;;;;;14.89;68.12;100226.03;4969122;28;19925;-91
2021/12/29 00:42:55;;;;;;;;;;;;;;;15.05;67.00;100229.31;4969462;28;20009;-89
2021/12/29 00:45:20;;;;;;;;;;;;;;;15.27;65.68;100248.59;4969518;28;19951;-90
2021/12/29 00:47:46;;;;;;;;;;;;;;;15.07;67.38;100249.13;4971523;28;19918;-88
2021/12/29 00:50:15;;;;;;;;;;;;;;;15.15;67.78;100245.81;4974986;28;19922;-88
2021/12/29 00:52:40;;;;;;;;;;;;;;;15.33;65.81;100239.97;4990581;28;19919;-89
2021/12/29 00:55:06;;;;;;;;;;;;;;;15.90;63.41;100250.03;4973719;28;19918;-86
2021/12/29 00:57:31;;;;;;;;;;;;;;;16.09;62.39;100251.28;4971375;28;19918;-90
2021/12/29 00:59:56;;;;;;;;;;;;;;;15.23;64.34;100265.19;4970623;28;20005;-90
2021/12/29 01:02:22;;;;;;;;;;;;;;;15.74;63.24;100282.19;4970723;28;19918;-91
2021/12/29 01:04:48;;;;;;;;;;;;;;;15.77;62.46;100273.78;4970638;28;20422;-90
2021/12/29 01:07:13;;;;;;;;;;;;;;;15.93;61.43;100287.97;4969931;28;19941;-90
2021/12/29 01:09:38;;;;;;;;;;;;;;;16.29;61.19;100301.56;4969027;28;19997;-89
2021/12/29 01:12:04;;;;;;;;;;;;;;;16.08;60.61;100320.50;4968335;28;19934;-89
2021/12/29 01:14:30;;;;;;;;;;;;;;;15.86;61.73;100315.88;4968113;28;19925;-89
2021/12/29 01:16:56;;;;;;;;;;;;;;;16.06;62.14;100311.56;4967757;28;19918;-89
2021/12/29 01:19:23;;;;;;;;;;;;;;;15.27;64.20;100314.00;4968559;28;19929;-90
2021/12/29 01:21:50;;;;;;;;;;;;;;;15.86;62.18;100305.81;4968616;28;19918;-90
2021/12/29 01:24:16;;;;;;;;;;;;;;;15.85;61.76;100319.56;4969479;28;20354;-91
2021/12/29 01:26:43;;;;;;;;;;;;;;;14.98;65.82;100322.53;4969175;28;19953;-89
2021/12/29 01:29:08;;;;;;;;;;;;;;;15.87;61.68;100333.97;4973850;28;19924;-87
2021/12/29 01:31:33;;;;;;;;;;;;;;;15.76;62.71;100340.22;4973058;28;19918;-88
2021/12/29 01:33:59;;;;;;;;;;;;;;;15.48;63.59;100347.81;4968776;28;19953;-90
2021/12/29 01:36:25;;;;;;;;;;;;;;;16.32;60.40;100349.56;4969226;28;19920;-89
2021/12/29 01:38:50;;;;;;;;;;;;;;;16.76;58.48;100347.84;4968806;28;19924;-93
2021/12/29 01:41:15;;;;;;;;;;;;;;;15.45;61.96;100345.31;4967946;28;20029;-92
2021/12/29 01:43:41;;;;;;;;;;;;;;;15.14;65.11;100344.91;4966946;28;19965;-89
2021/12/29 01:46:06;;;;;;;;;;;;;;;15.36;64.64;100351.47;4967759;28;20013;-89
2021/12/29 01:48:31;;;;;;;;;;;;;;;15.77;63.45;100359.22;4967471;28;19980;-90
2021/12/29 01:50:57;;;;;;;;;;;;;;;15.27;63.91;100360.34;4967427;28;19926;-91
2021/12/29 01:53:25;;;;;;;;;;;;;;;15.40;64.10;100366.63;4969155;28;19918;-90
2021/12/29 01:55:51;;;;;;;;;;;;;;;16.36;60.29;100362.81;4970653;28;19918;-90
2021/12/29 01:58:16;;;;;;;;;;;;;;;16.15;60.52;100364.53;4973506;28;19918;-89
2021/12/29 02:00:41;;;;;;;;;;;;;;;15.96;61.74;100371.44;4974141;28;19929;-87
2021/12/29 02:03:08;;;;;;;;;;;;;;;16.25;61.46;100371.03;4971015;28;19929;-88
2021/12/29 02:05:36;;;;;;;;;;;;;;;15.46;64.32;100384.34;4968877;28;19918;-89
2021/12/29 02:08:01;;;;;;;;;;;;;;;15.50;64.29;100381.25;4968487;28;19918;-87
2021/12/29 02:10:31;;;;;;;;;;;;;;;15.47;64.66;100392.41;4967349;28;20400;-89
2021/12/29 02:12:58;;;;;;;;;;;;;;;16.16;61.51;100388.97;4967596;28;19926;-93
2021/12/29 02:15:23;;;;;;;;;;;;;;;15.16;65.25;100391.97;4967700;28;19964;-90
2021/12/29 02:17:49;;;;;;;;;;;;;;;15.13;66.45;100392.22;4984508;28;19958;-90
2021/12/29 02:20:18;;;;;;;;;;;;;;;15.68;64.71;100394.50;4967027;28;19919;-89
2021/12/29 02:22:47;;;;;;;;;;;;;;;15.95;62.60;100391.53;4968324;28;19918;-89
2021/12/29 02:27:42;;;;;;;;;;;;;;;16.28;61.43;100398.06;4985270;28;19918;-91
2021/12/29 02:30:08;;;;;;;;;;;;;;;16.37;61.44;100407.41;4969826;28;19925;-88
2021/12/29 02:32:33;;;;;;;;;;;;;;;16.70;59.67;100389.28;4972159;28;19926;-91
2021/12/29 02:34:59;;;;;;;;;;;;;;;15.95;62.04;100397.84;4972616;28;19918;-91
2021/12/29 02:37:24;;;;;;;;;;;;;;;16.33;61.93;100395.84;4971879;28;19921;-89
2021/12/29 02:39:51;;;;;;;;;;;;;;;16.62;60.46;100404.44;4972756;28;19918;-92
2021/12/29 02:42:18;;;;;;;;;;;;;;;16.52;60.33;100414.38;4991903;28;19933;-89
2021/12/29 02:44:45;;;;;;;;;;;;;;;16.04;62.11;100422.69;4973433;28;19918;-90
2021/12/29 02:47:12;;;;;;;;;;;;;;;15.68;62.69;100421.75;4993078;28;19923;-88
2021/12/29 02:49:38;;;;;;;;;;;;;;;15.90;63.27;100423.75;4976854;28;19914;-86
2021/12/29 02:52:04;;;;;;;;;;;;;;;15.90;62.28;100421.03;4978128;28;19918;-88
2021/12/29 02:54:29;;;;;;;;;;;;;;;15.86;63.58;100434.03;4977319;28;19926;-89
2021/12/29 02:56:54;;;;;;;;;;;;;;;16.21;61.85;100435.00;4977651;28;19922;-89
2021/12/29 03:01:55;;;;;;;;;;;;;;;15.32;66.79;100439.88;4990027;28;19926;-90
2021/12/29 03:04:20;;;;;;;;;;;;;;;15.82;63.48;100450.75;4959210;28;20002;-87
2021/12/29 03:06:45;;;;;;;;;;;;;;;16.37;61.72;100459.28;4976618;28;19924;-89
2021/12/29 03:09:13;;;;;;;;;;;;;;;15.50;64.15;100460.31;4992065;28;19945;-86
2021/12/29 03:11:40;;;;;;;;;;;;;;;16.80;59.90;100462.19;4976492;28;19946;-87
2021/12/29 03:14:06;;;;;;;;;;;;;;;15.85;62.36;100469.59;4974768;28;19941;-88
2021/12/29 03:16:33;;;;;;;;;;;;;;;16.25;61.54;100475.59;4961299;28;19922;-87
2021/12/29 03:18:59;;;;;;;;;;;;;;;15.98;62.91;100472.28;4978768;28;19949;-86
2021/12/29 03:21:24;;;;;;;;;;;;;;;16.09;62.78;100480.50;4977269;28;19929;-87
2021/12/29 03:23:51;;;;;;;;;;;;;;;15.90;64.70;100491.97;4975073;28;19919;-87
2021/12/29 03:26:16;;;;;;;;;;;;;;;16.47;61.55;100484.84;4972949;28;19909;-91
2021/12/29 03:28:43;;;;;;;;;;;;;;;15.28;66.62;100473.78;4972792;28;20474;-89
2021/12/29 03:31:11;;;;;;;;;;;;;;;15.77;64.66;100483.78;4974077;28;19921;-87
2021/12/29 03:33:37;;;;;;;;;;;;;;;15.50;64.89;100482.13;4991716;28;19945;-87
2021/12/29 03:36:03;;;;;;;;;;;;;;;15.29;65.69;100500.06;4976174;28;19989;-86
2021/12/29 03:38:30;;;;;;;;;;;;;;;15.06;66.53;100506.19;4976275;28;19953;-89
2021/12/29 03:40:57;;;;;;;;;;;;;;;15.87;63.95;100509.41;4975545;28;19934;-86
2021/12/29 03:43:32;;;;;;;;;;;;;;;16.04;63.10;100516.31;4976187;28;19922;-88
2021/12/29 03:45:58;;;;;;;;;;;;;;;15.03;65.78;100519.19;4976208;28;20005;-86
2021/12/29 03:48:25;;;;;;;;;;;;;;;15.29;66.86;100527.31;4975352;28;19925;-87
2021/12/29 03:50:52;;;;;;;;;;;;;;;15.47;65.62;100523.25;4992488;28;19918;-88
2021/12/29 03:53:17;;;;;;;;;;;;;;;15.82;63.43;100525.28;4974606;28;19950;-89
2021/12/29 03:55:44;;;;;;;;;;;;;;;15.03;66.95;100521.91;4974733;28;19918;-88
2021/12/29 03:58:09;;;;;;;;;;;;;;;15.24;66.02;100517.63;4974839;28;19929;-87
2021/12/29 04:00:35;;;;;;;;;;;;;;;15.62;64.93;100525.84;4972090;28;19926;-87
2021/12/29 04:03:01;;;;;;;;;;;;;;;15.33;64.98;100532.44;4992003;28;19918;-88
2021/12/29 04:05:26;;;;;;;;;;;;;;;15.83;63.06;100528.88;4957830;28;19994;-85
2021/12/29 04:07:56;;;;;;;;;;;;;;;15.48;64.45;100526.88;4990544;28;19922;-85
2021/12/29 04:10:21;;;;;;;;;;;;;;;16.06;62.61;100524.38;4989920;28;20372;-89
2021/12/29 04:12:46;;;;;;;;;;;;;;;15.43;63.60;100519.03;4991736;28;19922;-87
2021/12/29 04:15:13;;;;;;;;;;;;;;;16.04;62.72;100524.50;4988375;28;19922;-89
2021/12/29 04:17:39;;;;;;;;;;;;;;;15.39;64.62;100526.53;4986391;28;19950;-89
2021/12/29 04:23:00;;;;;;;;;;;;;;;16.52;60.91;100520.88;4988175;28;19925;-86
2021/12/29 04:25:26;;;;;;;;;;;;;;;15.89;62.55;100536.59;4973187;28;19926;-87
2021/12/29 04:27:52;;;;;;;;;;;;;;;15.60;63.44;100537.72;4973262;28;19918;-87
2021/12/29 04:30:18;;;;;;;;;;;;;;;15.94;62.88;100545.28;4974937;28;19965;-88
2021/12/29 04:32:43;;;;;;;;;;;;;;;16.01;62.87;100551.16;4981877;23;20926;-87
2021/12/29 04:35:09;;;;;;;;;;;;;;;14.97;64.34;100560.47;4973353;28;19926;-86
2021/12/29 04:37:34;;;;;;;;;;;;;;;15.32;65.11;100557.94;4990669;28;19922;-86
2021/12/29 04:39:59;;;;;;;;;;;;;;;15.12;65.56;100570.28;4974430;28;19922;-88
2021/12/29 04:42:38;;;;;;;;;;;;;;;15.17;66.00;100576.31;4975440;28;19918;-85
2021/12/29 04:45:05;;;;;;;;;;;;;;;15.29;65.01;100579.97;4974868;28;19922;-86
2021/12/29 04:47:31;;;;;;;;;;;;;;;15.63;64.39;100580.28;4975589;28;19949;-86
2021/12/29 04:49:59;;;;;;;;;;;;;;;15.60;63.12;100575.91;4974864;28;19918;-85
2021/12/29 04:52:25;;;;;;;;;;;;;;;15.99;61.88;100586.75;4974696;28;19958;-86
2021/12/29 04:54:51;;;;;;;;;;;;;;;15.98;61.77;100582.28;4973467;28;19940;-87
2021/12/29 04:57:17;;;;;;;;;;;;;;;16.05;61.42;100590.88;4969744;28;19969;-90
2021/12/29 04:59:43;;;;;;;;;;;;;;;15.77;61.97;100592.88;4970128;28;20001;-91
2021/12/29 05:02:09;;;;;;;;;;;;;;;16.22;60.30;100585.00;4987582;28;19933;-89
2021/12/29 05:04:45;;;;;;;;;;;;;;;15.96;60.42;100584.25;4990362;28;19933;-87
2021/12/29 05:09:55;;;;;;;;;;;;;;;16.93;57.97;100598.72;4991207;28;19957;-90
2021/12/29 05:12:22;;;;;;;;;;;;;;;15.96;60.82;100586.97;4974042;28;19922;-88
2021/12/29 05:14:47;;;;;;;;;;;;;;;16.05;60.40;100588.16;4992120;28;19906;-88
2021/12/29 05:17:12;;;;;;;;;;;;;;;16.81;57.51;100588.72;4973603;28;19933;-89
2021/12/29 05:19:38;;;;;;;;;;;;;;;16.10;59.51;100594.13;4970766;28;19925;-90
2021/12/29 05:22:03;;;;;;;;;;;;;;;16.65;58.27;100597.22;4989393;28;19949;-89
2021/12/29 05:24:29;;;;;;;;;;;;;;;16.87;56.58;100601.94;4988477;28;19922;-87
2021/12/29 05:26:54;;;;;;;;;;;;;;;16.18;58.11;100593.56;4968426;28;19949;-88
2021/12/29 05:29:20;;;;;;;;;;;;;;;17.08;55.76;100602.13;4969723;28;19912;-90
2021/12/29 05:31:45;;;;;;;;;;;;;;;16.65;57.17;100602.69;4987764;28;19942;-89
2021/12/29 05:34:10;;;;;;;;;;;;;;;17.02;55.43;100593.53;4987415;28;19922;-93
2021/12/29 05:36:35;;;;;;;;;;;;;;;16.90;56.34;100603.56;4968198;28;19922;-93
2021/12/29 05:39:01;;;;;;;;;;;;;;;17.40;54.55;100592.34;4967773;28;19922;-89
2021/12/29 05:41:26;;;;;;;;;;;;;;;17.29;54.39;100601.41;4969822;28;19918;-89
2021/12/29 05:43:52;;;;;;;;;;;;;;;17.40;54.50;100589.63;4986437;28;19922;-91
2021/12/29 05:46:17;;;;;;;;;;;;;;;17.37;54.66;100601.66;4954668;28;19922;-87
2021/12/29 05:48:42;;;;;;;;;;;;;;;17.57;53.97;100599.19;4986941;28;20005;-92
2021/12/29 05:51:08;;;;;;;;;;;;;;;17.04;55.16;100602.47;4970799;28;19918;-89
2021/12/29 05:53:37;;;;;;;;;;;;;;;17.45;54.41;100606.50;4970577;28;19954;-87
2021/12/29 05:56:02;;;;;;;;;;;;;;;18.08;52.12;100611.50;4970229;28;19918;-90
2021/12/29 05:58:27;;;;;;;;;;;;;;;17.37;54.46;100612.59;4970736;28;19968;-88
2021/12/29 06:00:53;;;;;;;;;;;;;;;17.33;54.82;100620.19;4988518;28;19930;-90
2021/12/29 06:03:30;;;;;;;;;;;;;;;16.99;55.25;100611.91;4970830;28;20077;-88
2021/12/29 06:05:56;;;;;;;;;;;;;;;16.54;56.38;100614.44;4972893;28;19918;-89
2021/12/29 06:08:22;;;;;;;;;;;;;;;16.98;55.76;100632.06;4969193;28;19918;-90
2021/12/29 06:10:47;;;;;;;;;;;;;;;17.30;54.87;100631.38;4970587;28;19946;-89
2021/12/29 06:13:13;;;;;;;;;;;;;;;16.59;55.97;100631.38;4972492;28;19997;-90
2021/12/29 06:15:38;;;;;;;;;;;;;;;17.09;54.93;100628.47;4991699;28;19941;-87
2021/12/29 06:18:04;;;;;;;;;;;;;;;17.06;54.62;100630.56;4975241;28;19922;-85
2021/12/29 06:20:29;;;;;;;;;;;;;;;17.18;54.11;100625.00;4972296;28;19941;-91
2021/12/29 06:22:55;;;;;;;;;;;;;;;17.07;54.74;100624.97;4972897;28;19950;-90
2021/12/29 06:25:21;;;;;;;;;;;;;;;16.86;54.98;100624.75;4969346;28;19970;-89
2021/12/29 06:27:46;;;;;;;;;;;;;;;16.97;54.70;100613.03;4969693;28;19918;-89
2021/12/29 06:30:14;;;;;;;;;;;;;;;16.94;55.18;100629.66;4986669;28;19965;-89
2021/12/29 06:32:39;;;;;;;;;;;;;;;16.81;55.19;100635.19;4989091;28;19982;-87
2021/12/29 06:35:06;;;;;;;;;;;;;;;17.40;54.23;100641.56;4969785;28;19918;-91
2021/12/29 06:37:31;;;;;;;;;;;;;;;17.62;53.23;100629.75;4952400;28;19968;-89
2021/12/29 06:39:56;;;;;;;;;;;;;;;17.25;53.14;100639.03;4985153;28;19922;-91
2021/12/29 06:42:23;;;;;;;;;;;;;;;17.92;51.85;100633.75;4967612;28;19987;-90
2021/12/29 06:44:48;;;;;;;;;;;;;;;16.24;56.37;100640.34;4983844;28;19918;-90
2021/12/29 06:47:13;;;;;;;;;;;;;;;16.50;56.30;100650.31;4981156;28;19929;-89
2021/12/29 06:49:42;;;;;;;;;;;;;;;16.08;55.31;100654.28;4978684;28;20009;-89
2021/12/29 06:52:07;;;;;;;;;;;;;;;16.20;56.10;100657.97;4946366;28;19962;-88
2021/12/29 06:54:33;;;;;;;;;;;;;;;16.47;56.03;100656.84;4942655;29;19929;-89
2021/12/29 06:57:02;;;;;;;;;;;;;;;16.39;56.60;100659.31;4942701;29;19915;-88
2021/12/29 06:59:28;;;;;;;;;;;;;;;16.75;54.99;100658.38;4942909;29;20401;-87
2021/12/29 07:01:53;;;;;;;;;;;;;;;16.27;55.92;100664.72;4943117;29;19970;-88
2021/12/29 07:04:18;;;;;;;;;;;;;;;17.11;53.77;100656.53;4946967;28;19922;-89
2021/12/29 07:06:44;;;;;;;;;;;;;;;17.56;51.67;100663.97;4979207;28;19918;-90
2021/12/29 07:09:09;;;;;;;;;;;;;;;17.61;51.32;100674.53;4982431;28;19918;-93
2021/12/29 07:11:36;;;;;;;;;;;;;;;17.04;52.53;100676.28;4962556;28;19918;-87
2021/12/29 07:14:02;;;;;;;;;;;;;;;17.21;52.68;100678.59;4961850;28;19918;-89
2021/12/29 07:16:28;;;;;;;;;;;;;;;17.29;51.96;100675.25;4965367;28;19986;-88
2021/12/29 07:18:57;;;;;;;;;;;;;;;16.44;53.65;100693.47;4966967;28;19984;-88
2021/12/29 07:21:23;;;;;;;;;;;;;;;16.79;53.89;100695.41;4967780;28;19919;-88
2021/12/29 07:23:48;;;;;;;;;;;;;;;16.35;54.32;100698.75;4984066;28;19913;-89
2021/12/29 07:26:13;;;;;;;;;;;;;;;17.23;52.36;100697.59;4966116;28;19922;-89
2021/12/29 07:28:39;;;;;;;;;;;;;;;17.05;53.14;100697.16;4942686;28;20376;-88
2021/12/29 07:31:04;;;;;;;;;;;;;;;15.87;55.91;100694.94;4964730;28;19918;-92
2021/12/29 07:33:30;;;;;;;;;;;;;;;16.44;54.87;100703.50;4966478;28;19933;-89
2021/12/29 07:35:55;;;;;;;;;;;;;;;17.41;52.34;100695.25;4962373;29;20424;-91
2021/12/29 07:38:20;;;;;;;;;;;;;;;17.09;53.48;100698.66;4963423;29;19919;-91
2021/12/29 07:40:45;;;;;;;;;;;;;;;16.96;53.60;100693.28;4963030;29;19922;-92
2021/12/29 07:43:11;;;;;;;;;;;;;;;17.44;52.51;100700.50;4963241;29;19926;-92
2021/12/29 07:45:38;;;;;;;;;;;;;;;17.66;51.65;100697.81;4962808;29;20368;-89
2021/12/29 07:48:17;;;;;;;;;;;;;;;17.52;52.17;100681.63;4962067;29;19925;-90
2021/12/29 07:50:42;;;;;;;;;;;;;;;17.21;52.69;100681.31;4946653;29;19918;-91
2021/12/29 07:53:10;;;;;;;;;;;;;;;17.44;52.81;100675.91;4963316;29;19926;-90
2021/12/29 07:55:37;;;;;;;;;;;;;;;17.67;51.51;100683.13;4947399;29;19930;-92
2021/12/29 07:58:03;;;;;;;;;;;;;;;17.46;51.94;100669.28;4963247;29;19958;-88
2021/12/29 08:00:29;;;;;;;;;;;;;;;16.79;54.37;100675.41;4962745;29;20373;-90
2021/12/29 08:02:55;;;;;;;;;;;;;;;17.02;53.59;100679.13;4962674;29;19934;-91
2021/12/29 08:05:20;;;;;;;;;;;;;;;16.47;54.93;100692.34;4962184;29;19922;-89
2021/12/29 08:07:46;;;;;;;;;;;;;;;16.32;55.50;100694.41;4960604;29;19925;-90
2021/12/29 08:10:12;;;;;;;;;;;;;;;16.76;54.64;100684.72;4961062;29;20403;-87
2021/12/29 08:12:37;;;;;;;;;;;;;;;16.59;54.25;100688.72;4961315;29;19918;-90
2021/12/29 08:15:03;;;;;;;;;;;;;;;16.86;54.72;100692.19;4962594;29;19919;-87
2021/12/29 08:17:32;;;;;;;;;;;;;;;16.99;53.45;100693.03;4967138;29;19909;-87
2021/12/29 08:19:58;;;;;;;;;;;;;;;16.75;53.73;100701.22;4971563;29;19919;-85
2021/12/29 08:22:23;;;;;;;;;;;;;;;16.35;55.49;100698.75;4955695;29;19945;-86
2021/12/29 08:24:50;;;;;;;;;;;;;;;17.24;53.33;100699.31;4971310;29;21763;-89
2021/12/29 08:27:15;;;;;;;;;;;;;;;16.52;54.94;100684.72;4966999;28;19918;-89
2021/12/29 08:29:41;;;;;;;;;;;;;;;17.13;53.32;100691.97;4963095;29;20361;-93
2021/12/29 08:32:07;;;;;;;;;;;;;;;17.41;52.47;100689.78;4963290;29;19945;-89
2021/12/29 08:34:33;;;;;;;;;;;;;;;16.46;54.74;100693.38;4963747;28;20373;-89
2021/12/29 08:36:58;;;;;;;;;;;;;;;16.68;54.72;100702.66;4961405;29;19918;-89
2021/12/29 08:39:25;;;;;;;;;;;;;;;16.81;53.71;100708.94;4960900;29;20497;-92
2021/12/29 08:41:50;;;;;;;;;;;;;;;17.39;52.87;100708.19;4959357;29;19962;-89
2021/12/29 08:44:16;;;;;;;;;;;;;;;17.54;52.14;100705.13;4960906;29;19974;-89
2021/12/29 08:46:42;;;;;;;;;;;;;;;17.84;51.28;100700.91;4960096;29;20013;-90
2021/12/29 08:49:07;;;;;;;;;;;;;;;17.66;51.19;100694.19;4963472;29;19919;-90
2021/12/29 08:51:33;;;;;;;;;;;;;;;17.97;50.93;100703.56;4961786;29;20032;-88
2021/12/29 08:54:00;;;;;;;;;;;;;;;17.15;52.29;100698.16;4963091;29;19918;-87
2021/12/29 08:56:25;;;;;;;;;;;;;;;17.75;51.36;100695.31;4965340;29;19918;-85
2021/12/29 08:58:51;;;;;;;;;;;;;;;17.27;51.99;100701.81;4967661;29;19914;-89
2021/12/29 09:01:19;;;;;;;;;;;;;;;16.80;53.72;100688.97;4969377;28;19965;-86
2021/12/29 09:03:47;;;;;;;;;;;;;;;17.39;52.15;100681.69;4968891;29;19982;-87
2021/12/29 09:06:12;;;;;;;;;;;;;;;16.91;53.96;100679.97;4952807;29;19926;-92
2021/12/29 09:08:37;;;;;;;;;;;;;;;16.98;53.65;100680.34;4969136;29;19918;-87
2021/12/29 09:11:03;;;;;;;;;;;;;;;16.38;56.92;100687.59;4969221;29;19914;-87
2021/12/29 09:13:28;;;;;;;;;;;;;;;16.50;54.87;100681.22;4970726;29;19918;-87
2021/12/29 09:15:56;;;;;;;;;;;;;;;15.82;56.29;100694.41;4972875;29;19922;-86
2021/12/29 09:18:23;;;;;;;;;;;;;;;15.65;59.14;100689.22;4969920;29;20016;-90
2021/12/29 09:20:49;;;;;;;;;;;;;;;15.63;58.18;100685.75;4968311;29;19918;-87
2021/12/29 09:23:14;;;;;;;;;;;;;;;16.46;56.64;100671.53;4966605;29;19919;-88
2021/12/29 09:25:41;;;;;;;;;;;;;;;17.13;54.15;100670.94;4969420;29;19918;-86
2021/12/29 09:28:08;;;;;;;;;;;;;;;16.53;54.83;100669.19;4951573;29;19918;-90
2021/12/29 09:30:34;;;;;;;;;;;;;;;16.42;55.74;100672.72;4967383;29;19945;-86
2021/12/29 09:33:00;;;;;;;;;;;;;;;15.79;58.13;100697.31;4965962;28;19934;-85
2021/12/29 09:35:27;;;;;;;;;;;;;;;15.95;58.40;100688.91;4968282;29;19918;-90
2021/12/29 09:37:52;;;;;;;;;;;;;;;15.53;58.93;100696.44;4949218;29;19922;-89
2021/12/29 09:40:20;;;;;;;;;;;;;;;15.65;57.09;100694.69;4948016;29;19928;-88
2021/12/29 09:42:46;;;;;;;;;;;;;;;15.13;58.83;100694.66;4964549;29;19922;-88
2021/12/29 09:45:13;;;;;;;;;;;;;;;15.79;56.90;100691.84;4961308;29;20155;-87
2021/12/29 09:47:39;;;;;;;;;;;;;;;15.30;57.75;100689.88;4960709;29;19954;-91
2021/12/29 09:50:06;;;;;;;;;;;;;;;16.21;56.05;100676.06;4944759;29;19922;-88
2021/12/29 09:52:33;;;;;;;;;;;;;;;15.41;57.36;100676.34;4961190;29;19926;-91
2021/12/29 09:54:59;;;;;;;;;;;;;;;15.61;56.82;100674.97;4944600;29;19918;-90
2021/12/29 09:57:25;;;;;;;;;;;;;;;14.97;58.20;100667.59;4960591;29;19925;-92
2021/12/29 09:59:50;;;;;;;;;;;;;;;15.46;57.93;100676.03;4960668;29;19919;-92
2021/12/29 10:02:15;;;;;;;;;;;;;;;15.10;58.86;100673.06;4959781;29;20009;-91
2021/12/29 10:04:44;;;;;;;;;;;;;;;16.17;55.59;100658.19;4960267;29;19926;-92
2021/12/29 10:07:14;;;;;;;;;;;;;;;15.31;57.22;100665.25;4960636;29;19918;-93
2021/12/29 10:09:39;;;;;;;;;;;;;;;14.44;59.89;100653.88;4960432;29;19949;-91
2021/12/29 10:12:10;;;;;;;;;;;;;;;14.76;59.25;100653.59;4960545;29;19925;-91
2021/12/29 10:14:35;;;;;;;;;;;;;;;15.58;57.54;100632.41;4961269;29;19922;-90
2021/12/29 10:17:00;;;;;;;;;;;;;;;14.89;59.76;100640.88;4961162;29;19978;-92
2021/12/29 10:19:25;;;;;;;;;;;;;;;15.13;58.74;100640.16;4960993;29;19919;-92
2021/12/29 10:21:51;;;;;;;;;;;;;;;15.12;58.55;100649.31;4960482;29;19918;-91
2021/12/29 10:24:18;;;;;;;;;;;;;;;15.65;57.77;100645.59;4961624;29;20427;-92
2021/12/29 10:26:45;;;;;;;;;;;;;;;15.58;57.08;100635.13;4959842;29;19981;-91
2021/12/29 10:29:12;;;;;;;;;;;;;;;15.27;58.20;100631.00;4960434;29;19926;-92
2021/12/29 10:31:42;;;;;;;;;;;;;;;15.59;57.04;100634.16;4963046;29;20369;-89
2021/12/29 10:34:09;;;;;;;;;;;;;;;15.52;57.57;100635.59;4961248;28;19989;-90
2021/12/29 10:36:43;;;;;;;;;;;;;;;15.65;57.29;100635.56;4963414;29;20031;-89
2021/12/29 10:39:11;;;;;;;;;;;;;;;15.33;57.82;100638.75;4961781;29;19970;-90
2021/12/29 10:41:52;;;;;;;;;;;;;;;15.83;56.55;100640.69;4961387;29;19918;-90
2021/12/29 10:44:36;;;;;;;;;;;;;;;15.13;59.38;100647.47;4959916;29;19919;-88
2021/12/29 10:47:11;;;;;;;;;;;;;;;15.07;59.65;100665.09;4960199;29;19971;-87
2021/12/29 10:49:47;;;;;;;;;;;;;;;15.21;59.72;100659.56;4959963;28;20300;-88
2021/12/29 10:52:12;;;;;;;;;;;;;;;15.86;56.98;100649.53;4947750;29;19946;-89
2021/12/29 10:54:38;;;;;;;;;;;;;;;15.82;57.47;100658.03;4948471;29;19919;-89
2021/12/29 10:57:05;;;;;;;;;;;;;;;15.71;57.66;100650.59;4964992;29;20039;-91
2021/12/29 10:59:33;;;;;;;;;;;;;;;15.29;57.76;100650.84;4962361;29;19969;-88
2021/12/29 11:01:58;;;;;;;;;;;;;;;15.29;59.80;100653.56;4964258;29;19982;-90
2021/12/29 11:04:24;;;;;;;;;;;;;;;15.16;59.17;100644.53;4966045;29;20033;-91
2021/12/29 11:06:50;;;;;;;;;;;;;;;14.88;60.34;100624.66;4963806;28;19925;-88
2021/12/29 11:09:23;;;;;;;;;;;;;;;15.00;58.40;100606.56;4963065;29;20021;-87
2021/12/29 11:11:48;;;;;;;;;;;;;;;14.42;61.45;100611.41;4931018;29;19947;-89
2021/12/29 11:14:18;;;;;;;;;;;;;;;15.49;59.44;100597.63;4964354;29;19911;-87
2021/12/29 11:16:44;;;;;;;;;;;;;;;15.53;57.79;100603.72;4978402;28;19922;-86
2021/12/29 11:19:10;;;;;;;;;;;;;;;15.65;58.60;100604.69;4963064;28;19922;-85
2021/12/29 11:21:38;;;;;;;;;;;;;;;15.07;60.55;100610.63;4963333;28;20276;-88
2021/12/29 11:24:25;;;;;;;;;;;;;;;15.23;60.38;100605.84;4981655;28;20418;-87
2021/12/29 11:26:51;;;;;;;;;;;;;;;16.07;56.11;100591.63;4961470;28;19929;-87
2021/12/29 11:29:20;;;;;;;;;;;;;;;14.87;60.56;100580.19;4982018;28;20356;-87
2021/12/29 11:31:47;;;;;;;;;;;;;;;16.21;55.62;100579.66;4981097;28;19925;-86
2021/12/29 11:34:14;;;;;;;;;;;;;;;15.74;57.81;100583.06;4980796;28;19930;-86
2021/12/29 11:36:40;;;;;;;;;;;;;;;14.85;60.51;100586.72;4963513;28;19976;-86
2021/12/29 11:39:05;;;;;;;;;;;;;;;15.28;58.77;100586.44;4963772;28;19918;-84
2021/12/29 11:41:32;;;;;;;;;;;;;;;15.56;58.42;100588.00;4963190;28;19918;-82
2021/12/29 11:43:57;;;;;;;;;;;;;;;16.64;55.44;100585.44;4962385;28;19922;-85
2021/12/29 11:46:24;;;;;;;;;;;;;;;15.54;58.49;100589.97;4963718;28;20676;-87
2021/12/29 11:48:51;;;;;;;;;;;;;;;15.02;61.01;100577.34;4963354;28;19922;-83
2021/12/29 11:51:25;;;;;;;;;;;;;;;15.71;58.51;100577.84;4980202;28;19926;-85
2021/12/29 11:54:14;;;;;;;;;;;;;;;15.85;57.64;100571.41;4955968;28;19918;-86
2021/12/29 11:56:40;;;;;;;;;;;;;;;15.81;57.97;100567.16;4975514;28;19926;-84
2021/12/29 11:59:06;;;;;;;;;;;;;;;15.39;59.19;100561.13;4963692;28;19962;-86
2021/12/29 12:01:31;;;;;;;;;;;;;;;14.77;61.17;100565.47;4961686;28;19918;-85
2021/12/29 12:04:02;;;;;;;;;;;;;;;15.03;60.74;100568.22;4980872;28;19922;-85
2021/12/29 12:06:35;;;;;;;;;;;;;;;15.28;60.22;100553.72;4962897;28;19922;-84
2021/12/29 12:09:10;;;;;;;;;;;;;;;14.97;61.42;100549.59;4957720;28;19954;-86
2021/12/29 12:11:36;;;;;;;;;;;;;;;14.94;62.05;100552.53;4976208;28;19921;-84
2021/12/29 12:14:02;;;;;;;;;;;;;;;14.91;62.47;100550.03;4984148;28;19950;-84
2021/12/29 12:16:28;;;;;;;;;;;;;;;16.16;58.59;100547.28;4967186;28;19921;-85
2021/12/29 12:18:54;;;;;;;;;;;;;;;15.06;61.01;100546.22;4962260;28;20021;-84
2021/12/29 12:21:24;;;;;;;;;;;;;;;14.98;61.41;100537.72;4980081;28;19929;-86
2021/12/29 12:23:50;;;;;;;;;;;;;;;15.56;58.98;100538.06;4962222;28;19954;-84
2021/12/29 12:26:18;;;;;;;;;;;;;;;14.82;62.65;100543.38;4978372;28;19926;-84
2021/12/29 12:28:48;;;;;;;;;;;;;;;14.99;61.92;100542.16;4978518;28;20273;-84
2021/12/29 12:31:24;;;;;;;;;;;;;;;14.59;63.37;100534.94;4961723;28;20272;-85
2021/12/29 12:33:50;;;;;;;;;;;;;;;14.89;63.78;100521.03;4977422;28;19925;-85
2021/12/29 12:36:15;;;;;;;;;;;;;;;15.36;61.62;100520.47;4978099;28;20057;-86
2021/12/29 12:38:40;;;;;;;;;;;;;;;14.85;62.30;100522.22;4962320;28;19918;-84
2021/12/29 12:41:08;;;;;;;;;;;;;;;15.19;61.63;100514.38;4962575;28;20009;-87
2021/12/29 12:43:52;;;;;;;;;;;;;;;14.87;63.53;100500.31;4962264;28;19922;-86